EHBK/MST METAR and TAF weather

Enter ICAO airport designator
Station Type Date Time Source
EHBK METAR 2021/04/14 19:55 UTC NOAA

EHBK 141955Z AUTO 01011KT 340V050 9999 FEW021CB 05/M01 Q1029 NOSIG


Station Type Date Time Source
EHBK Decoded METAR 2021/04/14 19:55 UTC NOAA

Maastricht Airport Zuid Limburg, Netherlands (EHBK) 50-55N 005-47E 116M
Apr 14, 2021 - 03:55 PM EDT / 2021.04.14 1955 UTC
Wind: from the N (010 degrees) at 13 MPH (11 KT) (direction variable):0
Visibility: greater than 7 mile(s):0
Sky conditions: mostly clear
Weather: Cumulonimbus clouds observed
Temperature: 41 F (5 C)
Dew Point: 30 F (-1 C)
Relative Humidity: 65%
Pressure (altimeter): 30.39 in. Hg (1029 hPa)
ob: EHBK 141955Z AUTO 01011KT 340V050 9999 FEW021CB 05/M01 Q1029 NOSIG
cycle: 20

Station Type Date Time Source
EHBK TAF 2021/04/14 18:27 UTC NOAA

TAF EHBK 141655Z 1418/1524 03007KT 9999 SCT040 PROB30
TEMPO 1418/1421 7000 -SHRA FEW025CB PROB30 1502/1508 4000 BR BKN005

Example: see airport list